TAF EPSY 012330Z 0200/0209 09008KT 9999 BKN020 TEMPO 0203/0206 BKN014 PROB30 TEMPO 0206/0209 -RA BKN012=